sensor_id;sensor_type;location;lat;lon;timestamp;temperature;humidity
20833;DHT22;56075;51.264;7.150;2023-10-13T00:02:12;17.50;99.90
20833;DHT22;56075;51.264;7.150;2023-10-13T00:04:45;17.60;99.90
20833;DHT22;56075;51.264;7.150;2023-10-13T00:07:17;17.40;99.90
20833;DHT22;56075;51.264;7.150;2023-10-13T00:09:49;18.20;99.90
20833;DHT22;56075;51.264;7.150;2023-10-13T00:12:20;17.50;99.90
20833;DHT22;56075;51.264;7.150;2023-10-13T00:14:54;17.40;99.90
20833;DHT22;56075;51.264;7.150;2023-10-13T00:17:25;17.60;99.90
20833;DHT22;56075;51.264;7.150;2023-10-13T00:19:56;17.50;99.90
20833;DHT22;56075;51.264;7.150;2023-10-13T00:22:33;17.50;99.90
20833;DHT22;56075;51.264;7.150;2023-10-13T00:25:05;17.60;99.90
20833;DHT22;56075;51.264;7.150;2023-10-13T00:27:37;17.60;99.90
20833;DHT22;56075;51.264;7.150;2023-10-13T00:30:12;17.50;99.90
20833;DHT22;56075;51.264;7.150;2023-10-13T00:33:09;17.60;99.90
20833;DHT22;56075;51.264;7.150;2023-10-13T00:35:42;17.60;99.90
20833;DHT22;56075;51.264;7.150;2023-10-13T00:38:15;17.80;99.90
20833;DHT22;56075;51.264;7.150;2023-10-13T00:40:50;17.50;99.90
20833;DHT22;56075;51.264;7.150;2023-10-13T00:43:25;17.50;99.90
20833;DHT22;56075;51.264;7.150;2023-10-13T00:45:57;17.40;99.90
20833;DHT22;56075;51.264;7.150;2023-10-13T00:48:38;17.50;99.90
20833;DHT22;56075;51.264;7.150;2023-10-13T00:51:14;17.50;99.90
20833;DHT22;56075;51.264;7.150;2023-10-13T00:54:06;17.50;99.90
20833;DHT22;56075;51.264;7.150;2023-10-13T00:56:43;17.60;99.90
20833;DHT22;56075;51.264;7.150;2023-10-13T00:59:35;17.70;99.90
20833;DHT22;56075;51.264;7.150;2023-10-13T01:02:07;17.50;99.90
20833;DHT22;56075;51.264;7.150;2023-10-13T01:04:57;17.50;99.90
20833;DHT22;56075;51.264;7.150;2023-10-13T01:07:29;17.60;99.90
20833;DHT22;56075;51.264;7.150;2023-10-13T01:10:00;17.60;99.90
20833;DHT22;56075;51.264;7.150;2023-10-13T01:12:35;17.50;99.90
20833;DHT22;56075;51.264;7.150;2023-10-13T01:15:06;17.50;99.90
20833;DHT22;56075;51.264;7.150;2023-10-13T01:17:41;17.60;99.90
20833;DHT22;56075;51.264;7.150;2023-10-13T01:20:17;17.70;99.90
20833;DHT22;56075;51.264;7.150;2023-10-13T01:22:57;17.50;99.90
20833;DHT22;56075;51.264;7.150;2023-10-13T01:25:28;17.70;99.90
20833;DHT22;56075;51.264;7.150;2023-10-13T01:28:01;17.60;99.90
20833;DHT22;56075;51.264;7.150;2023-10-13T01:30:32;17.80;99.90
20833;DHT22;56075;51.264;7.150;2023-10-13T01:33:04;17.80;99.90
20833;DHT22;56075;51.264;7.150;2023-10-13T01:35:35;17.50;99.90
20833;DHT22;56075;51.264;7.150;2023-10-13T01:38:08;17.60;99.90
20833;DHT22;56075;51.264;7.150;2023-10-13T01:40:40;17.40;99.90
20833;DHT22;56075;51.264;7.150;2023-10-13T01:43:11;17.60;99.90
20833;DHT22;56075;51.264;7.150;2023-10-13T01:45:42;17.60;99.90
20833;DHT22;56075;51.264;7.150;2023-10-13T01:48:18;17.40;99.90
20833;DHT22;56075;51.264;7.150;2023-10-13T01:50:56;17.40;99.90
20833;DHT22;56075;51.264;7.150;2023-10-13T01:53:31;17.40;99.90
20833;DHT22;56075;51.264;7.150;2023-10-13T01:56:03;17.60;99.90
20833;DHT22;56075;51.264;7.150;2023-10-13T01:58:38;17.30;99.90
20833;DHT22;56075;51.264;7.150;2023-10-13T02:01:12;17.50;99.90
20833;DHT22;56075;51.264;7.150;2023-10-13T02:03:45;17.40;99.90
20833;DHT22;56075;51.264;7.150;2023-10-13T02:06:19;17.30;99.90
20833;DHT22;56075;51.264;7.150;2023-10-13T02:08:54;17.40;99.90
20833;DHT22;56075;51.264;7.150;2023-10-13T02:11:29;17.40;99.90
20833;DHT22;56075;51.264;7.150;2023-10-13T02:14:01;17.30;99.90
20833;DHT22;56075;51.264;7.150;2023-10-13T02:16:33;17.20;99.90
20833;DHT22;56075;51.264;7.150;2023-10-13T02:19:04;17.30;99.90
20833;DHT22;56075;51.264;7.150;2023-10-13T02:21:36;17.30;99.90
20833;DHT22;56075;51.264;7.150;2023-10-13T02:24:10;17.20;99.90
20833;DHT22;56075;51.264;7.150;2023-10-13T02:26:49;17.20;99.90
20833;DHT22;56075;51.264;7.150;2023-10-13T02:29:20;17.40;99.90
20833;DHT22;56075;51.264;7.150;2023-10-13T02:31:51;17.30;99.90
20833;DHT22;56075;51.264;7.150;2023-10-13T02:34:26;17.20;99.90
20833;DHT22;56075;51.264;7.150;2023-10-13T02:36:57;17.20;99.90
20833;DHT22;56075;51.264;7.150;2023-10-13T02:39:28;17.10;99.90
20833;DHT22;56075;51.264;7.150;2023-10-13T02:42:10;17.30;99.90
20833;DHT22;56075;51.264;7.150;2023-10-13T02:44:54;17.30;99.90
20833;DHT22;56075;51.264;7.150;2023-10-13T02:47:28;17.10;99.90
20833;DHT22;56075;51.264;7.150;2023-10-13T02:50:02;17.20;99.90
20833;DHT22;56075;51.264;7.150;2023-10-13T02:52:38;17.20;99.90
20833;DHT22;56075;51.264;7.150;2023-10-13T02:55:13;17.10;99.90
20833;DHT22;56075;51.264;7.150;2023-10-13T02:57:47;17.10;99.90
20833;DHT22;56075;51.264;7.150;2023-10-13T03:00:19;17.20;99.90
20833;DHT22;56075;51.264;7.150;2023-10-13T03:02:54;17.00;99.90
20833;DHT22;56075;51.264;7.150;2023-10-13T03:05:34;17.10;99.90
20833;DHT22;56075;51.264;7.150;2023-10-13T03:08:06;17.20;99.90
20833;DHT22;56075;51.264;7.150;2023-10-13T03:10:37;17.00;99.90
20833;DHT22;56075;51.264;7.150;2023-10-13T03:13:17;17.10;99.90
20833;DHT22;56075;51.264;7.150;2023-10-13T03:15:50;17.00;99.90
20833;DHT22;56075;51.264;7.150;2023-10-13T03:18:21;17.10;99.90
20833;DHT22;56075;51.264;7.150;2023-10-13T03:20:52;17.10;99.90
20833;DHT22;56075;51.264;7.150;2023-10-13T03:23:28;17.00;99.90
20833;DHT22;56075;51.264;7.150;2023-10-13T03:25:59;17.70;99.90
20833;DHT22;56075;51.264;7.150;2023-10-13T03:28:39;16.70;99.90
20833;DHT22;56075;51.264;7.150;2023-10-13T03:31:10;16.90;99.90
20833;DHT22;56075;51.264;7.150;2023-10-13T03:33:48;16.90;99.90
20833;DHT22;56075;51.264;7.150;2023-10-13T03:36:27;17.00;99.90
20833;DHT22;56075;51.264;7.150;2023-10-13T03:39:17;17.00;99.90
20833;DHT22;56075;51.264;7.150;2023-10-13T03:41:50;17.00;99.90
20833;DHT22;56075;51.264;7.150;2023-10-13T03:44:24;16.70;99.90
20833;DHT22;56075;51.264;7.150;2023-10-13T03:47:01;17.00;99.90
20833;DHT22;56075;51.264;7.150;2023-10-13T03:49:48;17.00;99.90
20833;DHT22;56075;51.264;7.150;2023-10-13T03:52:22;17.00;99.90
20833;DHT22;56075;51.264;7.150;2023-10-13T03:54:53;17.20;99.90
20833;DHT22;56075;51.264;7.150;2023-10-13T03:57:24;17.90;99.90
20833;DHT22;56075;51.264;7.150;2023-10-13T03:59:56;17.00;99.90
20833;DHT22;56075;51.264;7.150;2023-10-13T04:02:28;17.10;99.90
20833;DHT22;56075;51.264;7.150;2023-10-13T04:04:59;17.10;99.90
20833;DHT22;56075;51.264;7.150;2023-10-13T04:07:38;17.00;99.90
20833;DHT22;56075;51.264;7.150;2023-10-13T04:10:32;17.50;99.90
20833;DHT22;56075;51.264;7.150;2023-10-13T04:13:22;17.10;99.90
20833;DHT22;56075;51.264;7.150;2023-10-13T04:16:12;17.50;99.90
20833;DHT22;56075;51.264;7.150;2023-10-13T04:18:46;17.10;99.90
20833;DHT22;56075;51.264;7.150;2023-10-13T04:21:30;17.20;99.90
20833;DHT22;56075;51.264;7.150;2023-10-13T04:24:12;17.20;99.90
20833;DHT22;56075;51.264;7.150;2023-10-13T04:26:51;17.20;99.90
20833;DHT22;56075;51.264;7.150;2023-10-13T04:29:41;17.30;99.90
20833;DHT22;56075;51.264;7.150;2023-10-13T04:32:27;17.30;99.90
20833;DHT22;56075;51.264;7.150;2023-10-13T04:35:09;17.30;99.90
20833;DHT22;56075;51.264;7.150;2023-10-13T04:37:43;17.20;99.90
20833;DHT22;56075;51.264;7.150;2023-10-13T04:40:20;17.80;99.90
20833;DHT22;56075;51.264;7.150;2023-10-13T04:42:59;17.20;99.90
20833;DHT22;56075;51.264;7.150;2023-10-13T04:45:35;17.30;99.90
20833;DHT22;56075;51.264;7.150;2023-10-13T04:48:06;18.30;99.90
20833;DHT22;56075;51.264;7.150;2023-10-13T04:51:04;17.30;99.90
20833;DHT22;56075;51.264;7.150;2023-10-13T04:53:53;17.30;99.90
20833;DHT22;56075;51.264;7.150;2023-10-13T04:56:31;17.60;99.90
20833;DHT22;56075;51.264;7.150;2023-10-13T04:59:11;17.30;99.90
20833;DHT22;56075;51.264;7.150;2023-10-13T05:01:49;17.40;99.90
20833;DHT22;56075;51.264;7.150;2023-10-13T05:04:52;17.30;99.90
20833;DHT22;56075;51.264;7.150;2023-10-13T05:07:41;17.90;99.90
20833;DHT22;56075;51.264;7.150;2023-10-13T05:10:34;17.90;99.90
20833;DHT22;56075;51.264;7.150;2023-10-13T05:13:24;17.30;99.90
20833;DHT22;56075;51.264;7.150;2023-10-13T05:16:14;17.50;99.90
20833;DHT22;56075;51.264;7.150;2023-10-13T05:19:04;17.90;99.90
20833;DHT22;56075;51.264;7.150;2023-10-13T05:21:54;18.30;99.90
20833;DHT22;56075;51.264;7.150;2023-10-13T05:24:44;17.60;99.90
20833;DHT22;56075;51.264;7.150;2023-10-13T05:27:34;17.40;99.90
20833;DHT22;56075;51.264;7.150;2023-10-13T05:30:24;17.90;99.90
20833;DHT22;56075;51.264;7.150;2023-10-13T05:33:14;17.60;99.90
20833;DHT22;56075;51.264;7.150;2023-10-13T05:36:10;18.00;99.90
20833;DHT22;56075;51.264;7.150;2023-10-13T05:39:00;17.20;99.90
20833;DHT22;56075;51.264;7.150;2023-10-13T05:41:49;17.40;99.90
20833;DHT22;56075;51.264;7.150;2023-10-13T05:44:39;18.10;99.90
20833;DHT22;56075;51.264;7.150;2023-10-13T05:47:28;18.30;99.90
20833;DHT22;56075;51.264;7.150;2023-10-13T05:50:14;17.40;99.90
20833;DHT22;56075;51.264;7.150;2023-10-13T05:52:51;17.30;99.90
20833;DHT22;56075;51.264;7.150;2023-10-13T05:55:27;19.10;99.90
20833;DHT22;56075;51.264;7.150;2023-10-13T05:58:16;17.20;99.90
20833;DHT22;56075;51.264;7.150;2023-10-13T06:01:12;18.20;99.90
20833;DHT22;56075;51.264;7.150;2023-10-13T06:04:02;17.30;99.90
20833;DHT22;56075;51.264;7.150;2023-10-13T06:07:02;17.40;99.90
20833;DHT22;56075;51.264;7.150;2023-10-13T06:09:52;18.50;99.90
20833;DHT22;56075;51.264;7.150;2023-10-13T06:12:42;17.30;99.90
20833;DHT22;56075;51.264;7.150;2023-10-13T06:15:36;18.00;99.90
20833;DHT22;56075;51.264;7.150;2023-10-13T06:18:26;17.30;99.90
20833;DHT22;56075;51.264;7.150;2023-10-13T06:21:15;17.40;99.90
20833;DHT22;56075;51.264;7.150;2023-10-13T06:24:07;17.40;99.90
20833;DHT22;56075;51.264;7.150;2023-10-13T06:26:56;17.30;99.90
20833;DHT22;56075;51.264;7.150;2023-10-13T06:29:46;17.40;99.90
20833;DHT22;56075;51.264;7.150;2023-10-13T06:32:17;17.50;99.90
20833;DHT22;56075;51.264;7.150;2023-10-13T06:34:49;17.40;99.90
20833;DHT22;56075;51.264;7.150;2023-10-13T06:37:20;17.30;99.90
20833;DHT22;56075;51.264;7.150;2023-10-13T06:40:11;17.50;99.90
20833;DHT22;56075;51.264;7.150;2023-10-13T06:43:01;17.40;99.90
20833;DHT22;56075;51.264;7.150;2023-10-13T06:45:45;17.40;99.90
20833;DHT22;56075;51.264;7.150;2023-10-13T06:48:31;17.50;99.90
20833;DHT22;56075;51.264;7.150;2023-10-13T06:51:05;17.50;99.90
20833;DHT22;56075;51.264;7.150;2023-10-13T06:53:49;18.30;99.90
20833;DHT22;56075;51.264;7.150;2023-10-13T06:56:20;17.60;99.90
20833;DHT22;56075;51.264;7.150;2023-10-13T06:58:58;19.20;99.90
20833;DHT22;56075;51.264;7.150;2023-10-13T07:01:35;18.20;99.90
20833;DHT22;56075;51.264;7.150;2023-10-13T07:04:09;17.60;99.90
20833;DHT22;56075;51.264;7.150;2023-10-13T07:06:44;18.30;99.90
20833;DHT22;56075;51.264;7.150;2023-10-13T07:09:19;17.60;99.90
20833;DHT22;56075;51.264;7.150;2023-10-13T07:12:07;17.60;99.90
20833;DHT22;56075;51.264;7.150;2023-10-13T07:14:49;17.60;99.90
20833;DHT22;56075;51.264;7.150;2023-10-13T07:17:22;19.60;99.90
20833;DHT22;56075;51.264;7.150;2023-10-13T07:19:56;17.70;99.90
20833;DHT22;56075;51.264;7.150;2023-10-13T07:22:36;17.90;99.90
20833;DHT22;56075;51.264;7.150;2023-10-13T07:25:10;17.90;99.90
20833;DHT22;56075;51.264;7.150;2023-10-13T07:27:49;18.40;99.90
20833;DHT22;56075;51.264;7.150;2023-10-13T07:30:20;19.70;99.90
20833;DHT22;56075;51.264;7.150;2023-10-13T07:32:57;18.10;99.90
20833;DHT22;56075;51.264;7.150;2023-10-13T07:35:31;18.20;99.90
20833;DHT22;56075;51.264;7.150;2023-10-13T07:38:06;18.10;99.90
20833;DHT22;56075;51.264;7.150;2023-10-13T07:40:40;18.20;99.90
20833;DHT22;56075;51.264;7.150;2023-10-13T07:43:11;18.70;99.90
20833;DHT22;56075;51.264;7.150;2023-10-13T07:45:42;18.20;99.90
20833;DHT22;56075;51.264;7.150;2023-10-13T07:48:13;17.50;99.90
20833;DHT22;56075;51.264;7.150;2023-10-13T07:51:01;18.10;99.90
20833;DHT22;56075;51.264;7.150;2023-10-13T07:53:35;18.70;99.90
20833;DHT22;56075;51.264;7.150;2023-10-13T07:56:06;18.40;99.90
20833;DHT22;56075;51.264;7.150;2023-10-13T07:58:42;18.30;99.90
20833;DHT22;56075;51.264;7.150;2023-10-13T08:01:39;18.40;99.90
20833;DHT22;56075;51.264;7.150;2023-10-13T08:04:13;18.90;99.90
20833;DHT22;56075;51.264;7.150;2023-10-13T08:06:54;19.20;99.90
20833;DHT22;56075;51.264;7.150;2023-10-13T08:09:33;18.40;99.90
20833;DHT22;56075;51.264;7.150;2023-10-13T08:12:11;18.50;99.90
20833;DHT22;56075;51.264;7.150;2023-10-13T08:14:43;19.30;99.90
20833;DHT22;56075;51.264;7.150;2023-10-13T08:17:15;18.30;99.90
20833;DHT22;56075;51.264;7.150;2023-10-13T08:19:46;18.50;99.90
20833;DHT22;56075;51.264;7.150;2023-10-13T08:22:17;18.40;99.90
20833;DHT22;56075;51.264;7.150;2023-10-13T08:24:50;18.70;99.90
20833;DHT22;56075;51.264;7.150;2023-10-13T08:27:22;18.70;99.90
20833;DHT22;56075;51.264;7.150;2023-10-13T08:30:06;18.40;99.90
20833;DHT22;56075;51.264;7.150;2023-10-13T08:33:00;18.40;99.90
20833;DHT22;56075;51.264;7.150;2023-10-13T08:35:47;18.40;99.90
20833;DHT22;56075;51.264;7.150;2023-10-13T08:38:49;18.40;99.90
20833;DHT22;56075;51.264;7.150;2023-10-13T08:41:26;18.40;99.90
20833;DHT22;56075;51.264;7.150;2023-10-13T08:44:02;19.10;99.90
20833;DHT22;56075;51.264;7.150;2023-10-13T08:46:34;18.60;99.90
20833;DHT22;56075;51.264;7.150;2023-10-13T08:49:26;18.70;99.90
20833;DHT22;56075;51.264;7.150;2023-10-13T08:52:01;19.00;99.90
20833;DHT22;56075;51.264;7.150;2023-10-13T08:54:59;19.10;99.90
20833;DHT22;56075;51.264;7.150;2023-10-13T08:57:44;18.90;99.90
20833;DHT22;56075;51.264;7.150;2023-10-13T09:00:20;19.10;99.90
20833;DHT22;56075;51.264;7.150;2023-10-13T09:03:05;19.60;99.90
20833;DHT22;56075;51.264;7.150;2023-10-13T09:05:57;19.40;99.90
20833;DHT22;56075;51.264;7.150;2023-10-13T09:08:38;19.70;99.90
20833;DHT22;56075;51.264;7.150;2023-10-13T09:11:31;19.90;99.90
20833;DHT22;56075;51.264;7.150;2023-10-13T09:14:15;19.60;99.90
20833;DHT22;56075;51.264;7.150;2023-10-13T09:17:06;20.50;99.90
20833;DHT22;56075;51.264;7.150;2023-10-13T09:19:51;21.30;99.90
20833;DHT22;56075;51.264;7.150;2023-10-13T09:22:29;19.80;99.90
20833;DHT22;56075;51.264;7.150;2023-10-13T09:25:06;19.80;99.90
20833;DHT22;56075;51.264;7.150;2023-10-13T09:27:48;19.80;99.90
20833;DHT22;56075;51.264;7.150;2023-10-13T09:30:22;20.00;99.90
20833;DHT22;56075;51.264;7.150;2023-10-13T09:33:01;20.10;99.90
20833;DHT22;56075;51.264;7.150;2023-10-13T09:35:32;19.90;99.90
20833;DHT22;56075;51.264;7.150;2023-10-13T09:38:05;20.80;99.90
20833;DHT22;56075;51.264;7.150;2023-10-13T09:40:36;20.20;99.90
20833;DHT22;56075;51.264;7.150;2023-10-13T09:43:17;20.40;99.90
20833;DHT22;56075;51.264;7.150;2023-10-13T09:45:49;20.80;99.90
20833;DHT22;56075;51.264;7.150;2023-10-13T09:48:37;20.20;99.90
20833;DHT22;56075;51.264;7.150;2023-10-13T09:51:13;19.80;99.90
20833;DHT22;56075;51.264;7.150;2023-10-13T09:53:51;20.20;99.90
20833;DHT22;56075;51.264;7.150;2023-10-13T09:56:31;20.70;99.90
20833;DHT22;56075;51.264;7.150;2023-10-13T09:59:15;20.40;99.90
20833;DHT22;56075;51.264;7.150;2023-10-13T10:01:49;21.20;99.90
20833;DHT22;56075;51.264;7.150;2023-10-13T10:04:22;20.50;99.90
20833;DHT22;56075;51.264;7.150;2023-10-13T10:06:58;20.50;99.90
20833;DHT22;56075;51.264;7.150;2023-10-13T10:09:33;21.50;99.90
20833;DHT22;56075;51.264;7.150;2023-10-13T10:17:45;20.70;99.90
20833;DHT22;56075;51.264;7.150;2023-10-13T10:20:16;20.80;99.90
20833;DHT22;56075;51.264;7.150;2023-10-13T10:23:03;21.00;99.90
20833;DHT22;56075;51.264;7.150;2023-10-13T10:25:36;21.20;99.90
20833;DHT22;56075;51.264;7.150;2023-10-13T10:28:08;21.40;99.90
20833;DHT22;56075;51.264;7.150;2023-10-13T10:30:41;21.30;99.90
20833;DHT22;56075;51.264;7.150;2023-10-13T10:33:13;21.50;99.90
20833;DHT22;56075;51.264;7.150;2023-10-13T10:35:45;21.60;99.90
20833;DHT22;56075;51.264;7.150;2023-10-13T10:38:18;21.70;99.90
20833;DHT22;56075;51.264;7.150;2023-10-13T10:41:05;21.80;99.90
20833;DHT22;56075;51.264;7.150;2023-10-13T10:43:37;21.90;99.90
20833;DHT22;56075;51.264;7.150;2023-10-13T10:46:18;22.50;99.90
20833;DHT22;56075;51.264;7.150;2023-10-13T10:48:56;22.10;99.90
20833;DHT22;56075;51.264;7.150;2023-10-13T10:51:32;22.30;99.90
20833;DHT22;56075;51.264;7.150;2023-10-13T10:54:04;22.70;99.90
20833;DHT22;56075;51.264;7.150;2023-10-13T10:56:46;22.00;99.90
20833;DHT22;56075;51.264;7.150;2023-10-13T10:59:23;22.00;99.90
20833;DHT22;56075;51.264;7.150;2023-10-13T11:01:56;22.10;99.90
20833;DHT22;56075;51.264;7.150;2023-10-13T11:04:29;22.40;99.90
20833;DHT22;56075;51.264;7.150;2023-10-13T11:07:21;22.40;99.90
20833;DHT22;56075;51.264;7.150;2023-10-13T11:09:52;22.60;99.90
20833;DHT22;56075;51.264;7.150;2023-10-13T11:12:24;22.70;99.90
20833;DHT22;56075;51.264;7.150;2023-10-13T11:15:06;23.60;99.90
20833;DHT22;56075;51.264;7.150;2023-10-13T11:17:53;22.90;99.90
20833;DHT22;56075;51.264;7.150;2023-10-13T11:20:29;23.20;99.90
20833;DHT22;56075;51.264;7.150;2023-10-13T11:23:14;23.20;99.90
20833;DHT22;56075;51.264;7.150;2023-10-13T11:25:46;23.70;99.90
20833;DHT22;56075;51.264;7.150;2023-10-13T11:28:19;23.20;99.90
20833;DHT22;56075;51.264;7.150;2023-10-13T11:30:59;23.30;99.90
20833;DHT22;56075;51.264;7.150;2023-10-13T11:33:30;23.20;99.90
20833;DHT22;56075;51.264;7.150;2023-10-13T11:36:02;23.40;99.90
20833;DHT22;56075;51.264;7.150;2023-10-13T11:38:34;23.40;99.90
20833;DHT22;56075;51.264;7.150;2023-10-13T11:41:14;23.40;99.90
20833;DHT22;56075;51.264;7.150;2023-10-13T11:43:52;23.50;99.90
20833;DHT22;56075;51.264;7.150;2023-10-13T11:46:28;23.40;99.90
20833;DHT22;56075;51.264;7.150;2023-10-13T11:49:11;23.50;99.90
20833;DHT22;56075;51.264;7.150;2023-10-13T11:51:49;23.40;99.90
20833;DHT22;56075;51.264;7.150;2023-10-13T11:54:23;23.30;99.90
20833;DHT22;56075;51.264;7.150;2023-10-13T11:56:54;23.30;99.90
20833;DHT22;56075;51.264;7.150;2023-10-13T11:59:30;24.10;99.90
20833;DHT22;56075;51.264;7.150;2023-10-13T12:02:02;23.40;99.90
20833;DHT22;56075;51.264;7.150;2023-10-13T12:04:42;24.00;99.90
20833;DHT22;56075;51.264;7.150;2023-10-13T12:07:25;23.30;99.90
20833;DHT22;56075;51.264;7.150;2023-10-13T12:10:15;24.40;99.90
20833;DHT22;56075;51.264;7.150;2023-10-13T12:12:47;23.30;99.90
20833;DHT22;56075;51.264;7.150;2023-10-13T12:15:24;23.60;99.90
20833;DHT22;56075;51.264;7.150;2023-10-13T12:18:07;24.60;99.90
20833;DHT22;56075;51.264;7.150;2023-10-13T12:20:45;24.60;99.90
20833;DHT22;56075;51.264;7.150;2023-10-13T12:23:16;24.40;99.90
20833;DHT22;56075;51.264;7.150;2023-10-13T12:25:48;23.50;99.90
20833;DHT22;56075;51.264;7.150;2023-10-13T12:28:25;23.40;99.90
20833;DHT22;56075;51.264;7.150;2023-10-13T12:31:03;23.50;99.90
20833;DHT22;56075;51.264;7.150;2023-10-13T12:33:37;24.20;99.90
20833;DHT22;56075;51.264;7.150;2023-10-13T12:36:11;23.40;99.90
20833;DHT22;56075;51.264;7.150;2023-10-13T12:38:45;23.50;99.90
20833;DHT22;56075;51.264;7.150;2023-10-13T12:41:20;23.30;99.90
20833;DHT22;56075;51.264;7.150;2023-10-13T12:44:10;23.40;99.90
20833;DHT22;56075;51.264;7.150;2023-10-13T12:47:00;23.60;99.90
20833;DHT22;56075;51.264;7.150;2023-10-13T12:49:50;23.40;99.90
20833;DHT22;56075;51.264;7.150;2023-10-13T12:52:28;23.30;99.90
20833;DHT22;56075;51.264;7.150;2023-10-13T12:55:03;23.40;99.90
20833;DHT22;56075;51.264;7.150;2023-10-13T12:57:37;23.40;99.90
20833;DHT22;56075;51.264;7.150;2023-10-13T13:00:14;23.30;99.90
20833;DHT22;56075;51.264;7.150;2023-10-13T13:02:51;23.40;99.90
20833;DHT22;56075;51.264;7.150;2023-10-13T13:05:26;24.40;99.90
20833;DHT22;56075;51.264;7.150;2023-10-13T13:08:00;23.50;99.90
20833;DHT22;56075;51.264;7.150;2023-10-13T13:10:31;23.50;99.90
20833;DHT22;56075;51.264;7.150;2023-10-13T13:13:08;23.50;99.90
20833;DHT22;56075;51.264;7.150;2023-10-13T13:15:40;23.50;99.90
20833;DHT22;56075;51.264;7.150;2023-10-13T13:18:11;23.60;99.90
20833;DHT22;56075;51.264;7.150;2023-10-13T13:20:42;23.50;99.90
20833;DHT22;56075;51.264;7.150;2023-10-13T13:23:26;23.50;99.90
20833;DHT22;56075;51.264;7.150;2023-10-13T13:25:58;23.50;99.90
20833;DHT22;56075;51.264;7.150;2023-10-13T13:28:29;23.60;99.90
20833;DHT22;56075;51.264;7.150;2023-10-13T13:31:08;24.30;99.90
20833;DHT22;56075;51.264;7.150;2023-10-13T13:33:39;23.60;99.90
20833;DHT22;56075;51.264;7.150;2023-10-13T13:36:14;23.60;99.90
20833;DHT22;56075;51.264;7.150;2023-10-13T13:38:46;23.60;99.90
20833;DHT22;56075;51.264;7.150;2023-10-13T13:41:19;23.60;99.90
20833;DHT22;56075;51.264;7.150;2023-10-13T13:43:51;23.40;99.90
20833;DHT22;56075;51.264;7.150;2023-10-13T13:46:28;23.30;99.90
20833;DHT22;56075;51.264;7.150;2023-10-13T13:49:03;23.40;99.90
20833;DHT22;56075;51.264;7.150;2023-10-13T13:51:38;23.40;99.90
20833;DHT22;56075;51.264;7.150;2023-10-13T13:54:09;23.40;99.90
20833;DHT22;56075;51.264;7.150;2023-10-13T13:56:40;23.30;99.90
20833;DHT22;56075;51.264;7.150;2023-10-13T13:59:11;23.30;99.90
20833;DHT22;56075;51.264;7.150;2023-10-13T14:01:47;23.40;99.90
20833;DHT22;56075;51.264;7.150;2023-10-13T14:04:18;23.40;99.90
20833;DHT22;56075;51.264;7.150;2023-10-13T14:06:49;23.20;99.90
20833;DHT22;56075;51.264;7.150;2023-10-13T14:09:21;23.20;99.90
20833;DHT22;56075;51.264;7.150;2023-10-13T14:12:06;23.20;99.90
20833;DHT22;56075;51.264;7.150;2023-10-13T14:14:56;23.30;99.90
20833;DHT22;56075;51.264;7.150;2023-10-13T14:17:27;23.30;99.90
20833;DHT22;56075;51.264;7.150;2023-10-13T14:20:06;23.20;99.90
20833;DHT22;56075;51.264;7.150;2023-10-13T14:22:46;23.10;99.90
20833;DHT22;56075;51.264;7.150;2023-10-13T14:25:23;23.20;99.90
20833;DHT22;56075;51.264;7.150;2023-10-13T14:27:59;23.70;99.90
20833;DHT22;56075;51.264;7.150;2023-10-13T14:30:30;24.50;99.90
20833;DHT22;56075;51.264;7.150;2023-10-13T14:33:02;23.10;99.90
20833;DHT22;56075;51.264;7.150;2023-10-13T14:35:35;23.10;99.90
20833;DHT22;56075;51.264;7.150;2023-10-13T14:38:06;23.00;99.90
20833;DHT22;56075;51.264;7.150;2023-10-13T14:40:38;23.00;99.90
20833;DHT22;56075;51.264;7.150;2023-10-13T14:43:09;23.70;99.90
20833;DHT22;56075;51.264;7.150;2023-10-13T14:45:40;23.00;99.90
20833;DHT22;56075;51.264;7.150;2023-10-13T14:48:11;22.90;99.90
20833;DHT22;56075;51.264;7.150;2023-10-13T14:50:43;23.10;99.90
20833;DHT22;56075;51.264;7.150;2023-10-13T14:53:16;23.00;99.90
20833;DHT22;56075;51.264;7.150;2023-10-13T14:55:50;23.90;99.90
20833;DHT22;56075;51.264;7.150;2023-10-13T14:58:22;23.00;99.90
20833;DHT22;56075;51.264;7.150;2023-10-13T15:00:58;23.10;99.90
20833;DHT22;56075;51.264;7.150;2023-10-13T15:03:31;23.10;99.90
20833;DHT22;56075;51.264;7.150;2023-10-13T15:06:15;23.80;99.90
20833;DHT22;56075;51.264;7.150;2023-10-13T15:08:48;23.00;99.90
20833;DHT22;56075;51.264;7.150;2023-10-13T15:11:20;22.90;99.90
20833;DHT22;56075;51.264;7.150;2023-10-13T15:13:55;23.10;99.90
20833;DHT22;56075;51.264;7.150;2023-10-13T15:16:29;22.90;99.90
20833;DHT22;56075;51.264;7.150;2023-10-13T15:19:00;23.40;99.90
20833;DHT22;56075;51.264;7.150;2023-10-13T15:21:34;22.90;99.90
20833;DHT22;56075;51.264;7.150;2023-10-13T15:24:08;23.20;99.90
20833;DHT22;56075;51.264;7.150;2023-10-13T15:26:46;22.90;99.90
20833;DHT22;56075;51.264;7.150;2023-10-13T15:29:21;22.90;99.90
20833;DHT22;56075;51.264;7.150;2023-10-13T15:31:56;23.70;99.90
20833;DHT22;56075;51.264;7.150;2023-10-13T15:34:31;24.20;99.90
20833;DHT22;56075;51.264;7.150;2023-10-13T15:37:02;22.90;99.90
20833;DHT22;56075;51.264;7.150;2023-10-13T15:39:36;24.00;99.90
20833;DHT22;56075;51.264;7.150;2023-10-13T15:42:07;23.60;99.90
20833;DHT22;56075;51.264;7.150;2023-10-13T15:44:40;22.70;99.90
20833;DHT22;56075;51.264;7.150;2023-10-13T15:47:14;22.80;99.90
20833;DHT22;56075;51.264;7.150;2023-10-13T15:49:45;23.60;99.90
20833;DHT22;56075;51.264;7.150;2023-10-13T15:52:16;22.80;99.90
20833;DHT22;56075;51.264;7.150;2023-10-13T15:54:47;22.70;99.90
20833;DHT22;56075;51.264;7.150;2023-10-13T15:57:18;22.70;99.90
20833;DHT22;56075;51.264;7.150;2023-10-13T15:59:49;22.60;99.90
20833;DHT22;56075;51.264;7.150;2023-10-13T16:02:22;22.70;99.90
20833;DHT22;56075;51.264;7.150;2023-10-13T16:04:54;22.80;99.90
20833;DHT22;56075;51.264;7.150;2023-10-13T16:07:30;22.60;99.90
20833;DHT22;56075;51.264;7.150;2023-10-13T16:10:01;22.70;99.90
20833;DHT22;56075;51.264;7.150;2023-10-13T16:12:32;22.30;99.90
20833;DHT22;56075;51.264;7.150;2023-10-13T16:15:03;22.50;99.90
20833;DHT22;56075;51.264;7.150;2023-10-13T16:17:41;22.30;99.90
20833;DHT22;56075;51.264;7.150;2023-10-13T16:20:14;22.50;99.90
20833;DHT22;56075;51.264;7.150;2023-10-13T16:22:48;22.30;99.90
20833;DHT22;56075;51.264;7.150;2023-10-13T16:25:19;22.40;99.90
20833;DHT22;56075;51.264;7.150;2023-10-13T16:27:52;22.40;99.90
20833;DHT22;56075;51.264;7.150;2023-10-13T16:30:23;22.30;99.90
20833;DHT22;56075;51.264;7.150;2023-10-13T16:32:54;22.30;99.90
20833;DHT22;56075;51.264;7.150;2023-10-13T16:35:25;22.30;99.90
20833;DHT22;56075;51.264;7.150;2023-10-13T16:37:57;22.10;99.90
20833;DHT22;56075;51.264;7.150;2023-10-13T16:40:28;22.20;99.90